Questo sito fa uso di cookie per migliorare l’esperienza di navigazione degli utenti e per raccogliere informazioni sull’utilizzo del sito stesso. Proseguendo nella navigazione si accetta l’uso dei cookie; in caso contrario è possibile abbandonare il sito.

[source: ADDS]
METAR
LIPA 180655Z 24005KT 9999 SCT110 22/19 Q1012 RMK BKN BKN200 VIS MIN 9999 WIND THR05 /////KT WIND THR23 /////KT A2989 BLU =
TAF LIPA 180500Z 1806/1815 07005KT 9999 SCT070 TEMPO 1811/1815 5000 TSRA FEW030CB BKN050 LIPB 180650Z VRB03KT 9999 FEW027 19/16 Q1014 RMK MON W CLD SCT =
TAF LIPB 180500Z 1806/1906 VRB05KT 9999 SCT0410 TEMPO 1811/1818 4000 TSRA LIPC 180655Z 28002KT CAVOK 24/16 Q1011 RMK FEW FEW200 VIS MIN 9999 WIND THR11 /////KT WIND THR29 27003KT BLU =
TAF LIPC 180500Z 1806/1815 28004KT CAVOK BECMG 1810/1812 06010KT LIPE 180720Z 27005KT 230V300 CAVOK 23/16 Q1011 =
TAF LIPE 180500Z 1806/1906 23008KT 9999 SCT020 TEMPO 1814/1818 4000 TSRA LIPF 180655Z /////KT CAVOK 25/21 Q1011 RMK SCT SCT200 VIS MIN 9999 =
LIPH 180720Z 04005KT 350V090 9999 FEW020TCU SCT070 24/17 Q1012 =
TAF LIPH 180500Z 1806/1906 VRB05KT 9999 SCT040 TEMPO 1806/1812 4000 SHRA LIPI 180655Z /////KT CAVOK 23/15 Q1011 RMK BKN FEW120 BKN200 VIS MIN 9999 WIND THR06 02006KT WIND THR24 03005KT BLU =
TAF LIPI 180500Z 1806/1815 05005KT 9999 SCT060 TEMPO 1811/1815 5000 TSRA FEW030CB BKN050 LIPL 180655Z 07005KT CAVOK 25/20 Q1011 RMK BKN SCT090 SCT200 VIS MIN 9999 WIND THR31 07006KT WIND THR13 07005KT BLU =
TAF LIPL 180500Z 1806/1815 09005KT 9999 FEW035 SCT080 LIPO 180650Z 07008KT CAVOK 23/16 Q1012 =
TAF LIPO 180500Z 1806/1906 07008KT CAVOK PROB30 TEMPO 1810/1819 TSRA LIPQ 180720Z 36003KT 280V070 CAVOK 22/18 Q1011 =
TAF LIPQ 180500Z 1806/1906 34007KT 9999 SCT030 TEMPO 1806/1809 4000 SHRA LIPR 180720Z VRB01KT CAVOK 25/15 Q1011 =
TAF LIPR 180500Z 1806/1815 VRB05KT 9999 SCT030 BECMG 1809/1811 03010KT LIPS 180655Z /////KT 9999 FEW030 SCT100 23/20 Q1011 RMK BKN VIS MIN 9999 WIND THR26 02006KT WIND THR08 05006KT BLU =
TAF LIPS 180500Z 1806/1815 05007KT 9999 SCT070 PROB40 TEMPO 1812/1815 5000 TSRA FEW030CB BKN050 LIPX 180720Z 09005KT 050V120 9999 FEW090 24/15 Q1012 =
TAF LIPX 180500Z 1806/1815 VRB05KT 9999 SCT070 PROB30 TEMPO 1810/1815 TSRA LIPY 180650Z 22003KT 170V260 CAVOK 23/16 Q1011 =
TAF LIPY 180500Z 1806/1906 VRB05KT CAVOK BECMG 1810/1812 08010KT BECMG 1817/1819 VRB05KT LIPZ 180720Z 02007KT 340V050 9999 FEW040 SCT070 24/17 Q1011 NOSIG =
TAF LIPZ 180500Z 1806/1912 04006KT 9999 SCT020 TEMPO 1806/1812 4000 SHRA BECMG 1810/1812 15010KT BECMG 1818/1820 VRB05KT BECMG 1909/1911 15010KT LIVC 180655Z 21003KT CAVOK 11/04 Q1021 RMK FEW FEW170 MON LIB VAL NIL VIS MIN 9999 =
LIVD 180655Z /////KT 1800 BR OVC005 12/10 Q1019 RMK OVC VIS MIN 1800 =
LIVE 180655Z 00000KT 9999 SCT025 11/10 Q1017 RMK OVC BKN070 VIS MIN 9999 =
LIVF 180655Z 06002KT CAVOK 21/12 Q1012 RMK SKC MON LIB VAL NIL VIS MIN 9999 =
LIVM 180655Z VRB02KT 9999 FEW020 20/13 Q1010 RMK SCT SCT180 QUK 0 QUL 0 VIS MAR 18 KM VIS MIN 9999 =
LIVO 180655Z 00000KT 9999 FEW022 SCT050 16/13 Q1015 RMK BKN BKN160 VIS MIN 9999 =
LIVP 180655Z 19002KT 9999 FEW000 10/08 Q1020 RMK OVC SCT060 MON CIME INC VAL CLD SCT VIS MIN 9999S =
LIVR 180655Z 26003KT 9999 SCT050 11/08 Q1019 RMK BKN SCT170 MON LIB VIS MIN 9999 =
LIVT 180655Z 29006KT CAVOK 24/18 Q1010 RMK BKN BKN070 QUK 0 QUL 0 VIS MAR 20 KM VIS MIN 9999 =
LIMC 180720Z 07005KT 030V110 CAVOK 23/16 Q1013 NOSIG =
TAF LIMC 180500Z 1806/1912 VRB05KT 9999 SCT070 PROB40 TEMPO 1821/1904 TSRA LIME 180720Z 02002KT 9999 BKN100 23/15 Q1013 NOSIG =
TAF LIME 180500Z 1806/1906 VRB05KT 9999 BKN060 PROB40 TEMPO 1806/1809 TSRA PROB40 TEMPO 1822/1904 TSRA LIMF 180720Z 08003KT 040V120 9999 SCT110 23/16 Q1013 =
TAF LIMF 180500Z 1806/1906 VRB05KT 9999 SCT070 PROB30 TEMPO 1810/1816 TSRA PROB30 TEMPO 1820/1824 TSRA LIMG 180650Z 00000KT 9999 BKN040 23/19 Q1012 =
LIMH 180655Z /////KT 9999 FEW040 M01/M05 Q1025 RMK FEW MON LIB VAL CLD SCT VIS MIN 9999 =
LIMJ 180720Z 13005KT 100V160 9999 SCT025 24/19 Q1012 =
TAF LIMJ 180500Z 1806/1906 VRB05KT 9999 SCT025 PROB40 TEMPO 1806/1814 TSRA LIMK 180655Z 01006KT 300V060 CAVOK 20/19 Q1013 RMK SCT SCT080 VAL NIL VIS MIN 9999 =
LIML 180720Z VRB01KT 9999 SCT050 23/15 Q1012 NOSIG =
TAF LIML 180500Z 1806/1906 VRB05KT 9999 SCT070 PROB30 TEMPO 1822/1904 TSRA LIMN 180655Z 02004KT CAVOK 21/16 Q1012 RMK SCT SCT100 VIS MIN 9999 BLK BLU =
TAF LIMN 180500Z 1806/1815 01005KT CAVOK PROB30 TEMPO 1812/1815 5000 TSRA FEW030CB SCT050 LIMS 180727Z 27006KT 9999 -TSRA FEW025CB SCT030TCU 20/20 Q1011 RMK BKN VIS MIN 9999 WIND THR30 27005KT BLU =
LIMU 180655Z 03004KT 9999 BKN020 21/19 Q1012 RMK BKN QUK 2 QUL 1 SE VIS MAR 15 KM VIS MIN 9999 =
LIMV 180655Z /////KT 9999 FEW008 19/16 Q1014 RMK BKN SCT070 BKN200 MON LIB CUF VAL NIL VIS MIN 9999 =
LIMY 180655Z VRB02KT CAVOK 19/18 Q1013 RMK BKN SCT070 VAL FOSCHIA VIS MIN 9999 =
TAF
TAF LIPA 180500Z 1806/1815 07005KT 9999 SCT070 TEMPO 1811/1815 5000 TSRA FEW030CB BKN050 =
TAF LIPB 180500Z 1806/1906 VRB05KT 9999 SCT0410 TEMPO 1811/1818 4000 TSRA =
TAF LIPC 180500Z 1806/1815 28004KT CAVOK BECMG 1810/1812 06010KT =
TAF LIPE 180500Z 1806/1906 23008KT 9999 SCT020 TEMPO 1814/1818 4000 TSRA =
TAF LIPH 180500Z 1806/1906 VRB05KT 9999 SCT040 TEMPO 1806/1812 4000 SHRA =
TAF LIPI 180500Z 1806/1815 05005KT 9999 SCT060 TEMPO 1811/1815 5000 TSRA FEW030CB BKN050 =
TAF LIPL 180500Z 1806/1815 09005KT 9999 FEW035 SCT080 =
TAF LIPO 180500Z 1806/1906 07008KT CAVOK PROB30 TEMPO 1810/1819 TSRA =
TAF LIPQ 180500Z 1806/1906 34007KT 9999 SCT030 TEMPO 1806/1809 4000 SHRA =
TAF LIPR 180500Z 1806/1815 VRB05KT 9999 SCT030 BECMG 1809/1811 03010KT =
TAF LIPS 180500Z 1806/1815 05007KT 9999 SCT070 PROB40 TEMPO 1812/1815 5000 TSRA FEW030CB BKN050 =
TAF LIPX 180500Z 1806/1815 VRB05KT 9999 SCT070 PROB30 TEMPO 1810/1815 TSRA =
TAF LIPY 180500Z 1806/1906 VRB05KT CAVOK BECMG 1810/1812 08010KT BECMG 1817/1819 VRB05KT =
TAF LIPZ 180500Z 1806/1912 04006KT 9999 SCT020 TEMPO 1806/1812 4000 SHRA BECMG 1810/1812 15010KT BECMG 1818/1820 VRB05KT BECMG 1909/1911 15010KT =
TAF LIMC 180500Z 1806/1912 VRB05KT 9999 SCT070 PROB40 TEMPO 1821/1904 TSRA =
TAF LIME 180500Z 1806/1906 VRB05KT 9999 BKN060 PROB40 TEMPO 1806/1809 TSRA PROB40 TEMPO 1822/1904 TSRA =
TAF LIMF 180500Z 1806/1906 VRB05KT 9999 SCT070 PROB30 TEMPO 1810/1816 TSRA PROB30 TEMPO 1820/1824 TSRA =
TAF LIMJ 180500Z 1806/1906 VRB05KT 9999 SCT025 PROB40 TEMPO 1806/1814 TSRA =
TAF LIML 180500Z 1806/1906 VRB05KT 9999 SCT070 PROB30 TEMPO 1822/1904 TSRA =
TAF LIMN 180500Z 1806/1815 01005KT CAVOK PROB30 TEMPO 1812/1815 5000 TSRA FEW030CB SCT050 =
SR / SS: 03:42 / 18:55 UTC (Effemeridi Aeroporto di Padova - LIPU 2019-07-18)

Immagini e previsioni meteo non aeronautiche

 

 

Immagini dal Radar Meteorologico del sito ARPAV. Orario UTC.

 

Immagine dal sito Meteo Sat Online

 

Legenda codici ICAO del nord Italia

 

In ordine di codice   In ordine di località
LIMC
Milano / Malpensa LIMG Albenga
LIME Bergamo / Orio Al Serio LIPA Aviano
LIMF Torino / Caselle LIME Bergamo / Orio Al Serio
LIMG Albenga LIPE Bologna / Borgo Panigale
LIMH Pian Rosa LIPB Bolzano
LIMJ Genova / Sestri LIPL Brescia / Ghedi
LIMK Torino / Bric Della Croce LIPO Brescia / Montichiari
LIML Milano / Linate LIMU Capo Mele
LIMN Novara / Cameri LIPC Cervia
LIMO Monte Bisbino LIVD Dobbiaco
LIMS Piacenza LIPP Dova Area Control Center
LIMT Passo Della Cisa LIPY Falconara
LIMU Capo Mele LIPF Ferrara
LIMV Passo Dei Giovi LIPK Forli
LIMY Monte Malanotte LIVF Frontone
LIPA Aviano LIMJ Genova / Sestri
LIPB Bolzano LIML Milano / Linate
LIPC Cervia
LIMC
Milano / Malpensa
LIPD Udine / Campoformido LIMO Monte Bisbino
LIPE Bologna / Borgo Panigale LIVC Monte Cimone
LIPF Ferrara LIMY Monte Malanotte
LIPH Treviso / S. Angelo LIMN Novara / Cameri
LIPI Udine / Rivolto LIPU Padova
LIPK Forli LIVP Paganella
LIPL Brescia / Ghedi LIMV Passo Dei Giovi
LIPO Brescia / Montichiari LIMT Passo Della Cisa
LIPP Dova Area Control Center LIVR Passo Rolle
LIPQ Ronchi Dei Legionari LIMS Piacenza
LIPR Rimini LIMH Pian Rosa
LIPS Treviso / Istrana LIVM Punta Marina
LIPT Vicenza LIVE Resia Pass
LIPU Padova LIPR Rimini
LIPX Verona / Villafranca LIPQ Ronchi Dei Legionari
LIPY Falconara LIVO Tarvisio
LIPZ Venezia / Tessera LIMK Torino / Bric Della Croce
LIVC Monte Cimone LIMF Torino / Caselle
LIVD Dobbiaco LIPS Treviso / Istrana
LIVE Resia Pass LIPH Treviso / S. Angelo
LIVF Frontone LIVT
Trieste
LIVM Punta Marina LIPD Udine / Campoformido
LIVO Tarvisio LIPI Udine / Rivolto
LIVP Paganella LIPZ Venezia / Tessera
LIVR Passo Rolle LIPX Verona / Villafranca
LIVT Trieste LIPT Vicenza

 

 

 

 

 

 

 

 

 

 

 

 

 

 

 

 

 

 

 

 

 

 

 

 

 

 

 

 

 

 

 

 

 

 

 

 

 

 

 

 

 

 

 

 

 

 

 

 

 

 

 

 

 

 

 

 

 

 

 

 

L'Aeroclub di Padova si limita a riportare informazioni fornite da terze parti, e non ha quindi alcuna responsabilità sul contenuto. Per la pianificazione dei propri voli si raccomanda l'utilizzo delle fonti ufficiali.

Copyright 2011. Free joomla templates | © Aeroclub Padova - Scuola di Volo, Ditta di manutenzione, CAMO Via Sorio, 89 - 35141 Padova Tel. 049 8718599 Fax 049 8717699 info@aeroclubpadova.it